Terminal Aerodrome Forecast
Issued by NWS Mt. Holly, NJ

Home | Current Version | Previous Version | Text Only | Print | Product List | Glossary On
Versions: 1 2 3 4 5 6 7 8 9 10 11 12 13 14 15 16 17 18 19 20 21
000
FTUS41 KPHI 270036 AAA
TAFACY
TAF AMD
KACY 270036Z 2701/2724 21009KT 2SM BR OVC002
     FM270300 25006KT P6SM -SHRA SCT005 OVC040
      TEMPO 2703/2704 33013G23KT 4SM SHRA OVC005
     FM270400 32010G17KT 4SM -SHRA BR OVC008
     FM271000 35012KT 4SM RA BR OVC008
     FM271500 35009KT P6SM VCSH BKN025 OVC100
     FM272000 35008KT P6SM OVC100=

USA.gov is the U.S. government's official web portal to all federal, state and local government web resources and services.